sensor_id;sensor_type;location;lat;lon;timestamp;pressure;altitude;pressure_sealevel;temperature;humidity
6829;BME280;17930;48.592;8.868;2023-02-12T00:00:12;98692.25;;;4.12;100.00
6829;BME280;17930;48.592;8.868;2023-02-12T00:02:39;98692.91;;;4.21;100.00
6829;BME280;17930;48.592;8.868;2023-02-12T00:05:08;98684.38;;;4.20;100.00
6829;BME280;17930;48.592;8.868;2023-02-12T00:07:34;98687.59;;;4.22;100.00
6829;BME280;17930;48.592;8.868;2023-02-12T00:10:01;98676.75;;;4.33;100.00
6829;BME280;17930;48.592;8.868;2023-02-12T00:12:27;98681.16;;;4.39;100.00
6829;BME280;17930;48.592;8.868;2023-02-12T00:14:54;98686.59;;;4.44;100.00
6829;BME280;17930;48.592;8.868;2023-02-12T00:17:21;98687.34;;;4.38;100.00
6829;BME280;17930;48.592;8.868;2023-02-12T00:19:47;98675.59;;;4.63;100.00
6829;BME280;17930;48.592;8.868;2023-02-12T00:22:17;98688.91;;;4.60;100.00
6829;BME280;17930;48.592;8.868;2023-02-12T00:24:43;98684.69;;;4.53;100.00
6829;BME280;17930;48.592;8.868;2023-02-12T00:27:10;98689.84;;;4.53;100.00
6829;BME280;17930;48.592;8.868;2023-02-12T00:29:37;98680.84;;;4.28;100.00
6829;BME280;17930;48.592;8.868;2023-02-12T00:32:04;98684.31;;;4.14;100.00
6829;BME280;17930;48.592;8.868;2023-02-12T00:34:30;98691.00;;;4.08;100.00
6829;BME280;17930;48.592;8.868;2023-02-12T00:36:57;98699.31;;;4.04;100.00
6829;BME280;17930;48.592;8.868;2023-02-12T00:39:25;98694.75;;;4.06;100.00
6829;BME280;17930;48.592;8.868;2023-02-12T00:41:51;98692.44;;;3.97;100.00
6829;BME280;17930;48.592;8.868;2023-02-12T00:44:18;98694.31;;;4.03;100.00
6829;BME280;17930;48.592;8.868;2023-02-12T00:46:45;98694.66;;;4.00;100.00
6829;BME280;17930;48.592;8.868;2023-02-12T00:49:11;98695.34;;;4.08;100.00
6829;BME280;17930;48.592;8.868;2023-02-12T00:51:38;98697.75;;;4.09;100.00
6829;BME280;17930;48.592;8.868;2023-02-12T00:54:05;98700.28;;;4.03;100.00
6829;BME280;17930;48.592;8.868;2023-02-12T00:56:33;98696.28;;;4.01;100.00
6829;BME280;17930;48.592;8.868;2023-02-12T00:59:00;98701.34;;;4.08;100.00
6829;BME280;17930;48.592;8.868;2023-02-12T01:01:26;98696.34;;;4.28;100.00
6829;BME280;17930;48.592;8.868;2023-02-12T01:03:53;98701.19;;;4.16;100.00
6829;BME280;17930;48.592;8.868;2023-02-12T01:06:20;98709.97;;;4.01;100.00
6829;BME280;17930;48.592;8.868;2023-02-12T01:08:49;98705.81;;;4.00;100.00
6829;BME280;17930;48.592;8.868;2023-02-12T01:11:16;98714.72;;;3.98;100.00
6829;BME280;17930;48.592;8.868;2023-02-12T01:13:44;98706.91;;;3.77;100.00
6829;BME280;17930;48.592;8.868;2023-02-12T01:16:14;98708.69;;;3.76;100.00
6829;BME280;17930;48.592;8.868;2023-02-12T01:18:41;98713.66;;;3.92;100.00
6829;BME280;17930;48.592;8.868;2023-02-12T01:21:09;98702.31;;;4.07;100.00
6829;BME280;17930;48.592;8.868;2023-02-12T01:23:36;98693.97;;;4.06;100.00
6829;BME280;17930;48.592;8.868;2023-02-12T01:26:03;98700.47;;;4.02;100.00
6829;BME280;17930;48.592;8.868;2023-02-12T01:28:30;98702.53;;;3.92;100.00
6829;BME280;17930;48.592;8.868;2023-02-12T01:30:58;98697.84;;;3.81;100.00
6829;BME280;17930;48.592;8.868;2023-02-12T01:33:24;98696.88;;;3.82;100.00
6829;BME280;17930;48.592;8.868;2023-02-12T01:35:51;98693.13;;;3.84;100.00
6829;BME280;17930;48.592;8.868;2023-02-12T01:38:17;98693.59;;;4.08;100.00
6829;BME280;17930;48.592;8.868;2023-02-12T01:40:44;98698.25;;;4.19;100.00
6829;BME280;17930;48.592;8.868;2023-02-12T01:43:11;98696.16;;;4.08;100.00
6829;BME280;17930;48.592;8.868;2023-02-12T01:46:00;98697.75;;;4.09;100.00
6829;BME280;17930;48.592;8.868;2023-02-12T01:48:30;98692.78;;;4.29;100.00
6829;BME280;17930;48.592;8.868;2023-02-12T01:50:58;98681.84;;;4.06;100.00
6829;BME280;17930;48.592;8.868;2023-02-12T01:53:32;98688.16;;;4.04;100.00
6829;BME280;17930;48.592;8.868;2023-02-12T01:56:01;98689.03;;;4.10;100.00
6829;BME280;17930;48.592;8.868;2023-02-12T01:58:30;98688.75;;;4.20;100.00
6829;BME280;17930;48.592;8.868;2023-02-12T02:01:03;98688.78;;;4.26;100.00
6829;BME280;17930;48.592;8.868;2023-02-12T02:03:31;98688.91;;;4.39;100.00
6829;BME280;17930;48.592;8.868;2023-02-12T02:06:02;98688.19;;;4.45;100.00
6829;BME280;17930;48.592;8.868;2023-02-12T02:08:32;98686.28;;;4.33;100.00
6829;BME280;17930;48.592;8.868;2023-02-12T02:10:59;98689.16;;;4.65;100.00
6829;BME280;17930;48.592;8.868;2023-02-12T02:13:26;98683.34;;;4.84;100.00
6829;BME280;17930;48.592;8.868;2023-02-12T02:16:25;98679.19;;;4.62;100.00
6829;BME280;17930;48.592;8.868;2023-02-12T02:18:58;98688.41;;;4.71;100.00
6829;BME280;17930;48.592;8.868;2023-02-12T02:21:39;98677.50;;;4.48;100.00
6829;BME280;17930;48.592;8.868;2023-02-12T02:24:46;98669.00;;;4.33;100.00
6829;BME280;17930;48.592;8.868;2023-02-12T02:27:24;98673.91;;;4.49;100.00
6829;BME280;17930;48.592;8.868;2023-02-12T02:30:20;98672.06;;;4.43;100.00
6829;BME280;17930;48.592;8.868;2023-02-12T02:32:56;98669.56;;;4.50;100.00
6829;BME280;17930;48.592;8.868;2023-02-12T02:35:37;98665.66;;;4.60;100.00
6829;BME280;17930;48.592;8.868;2023-02-12T02:38:14;98660.38;;;4.47;100.00
6829;BME280;17930;48.592;8.868;2023-02-12T02:40:49;98673.78;;;4.36;100.00
6829;BME280;17930;48.592;8.868;2023-02-12T02:43:21;98669.84;;;4.19;100.00
6829;BME280;17930;48.592;8.868;2023-02-12T02:45:52;98667.50;;;4.04;100.00
6829;BME280;17930;48.592;8.868;2023-02-12T02:48:23;98671.69;;;4.05;100.00
6829;BME280;17930;48.592;8.868;2023-02-12T02:50:55;98672.06;;;4.02;100.00
6829;BME280;17930;48.592;8.868;2023-02-12T02:53:26;98677.53;;;3.92;100.00
6829;BME280;17930;48.592;8.868;2023-02-12T02:55:58;98668.41;;;3.75;100.00
6829;BME280;17930;48.592;8.868;2023-02-12T02:58:28;98674.72;;;3.73;100.00
6829;BME280;17930;48.592;8.868;2023-02-12T03:01:02;98675.34;;;3.75;100.00
6829;BME280;17930;48.592;8.868;2023-02-12T03:03:33;98674.72;;;3.73;100.00
6829;BME280;17930;48.592;8.868;2023-02-12T03:06:08;98669.13;;;3.69;100.00
6829;BME280;17930;48.592;8.868;2023-02-12T03:08:39;98665.84;;;3.61;100.00
6829;BME280;17930;48.592;8.868;2023-02-12T03:11:10;98659.81;;;3.54;100.00
6829;BME280;17930;48.592;8.868;2023-02-12T03:13:42;98663.72;;;3.50;100.00
6829;BME280;17930;48.592;8.868;2023-02-12T03:16:16;98667.66;;;3.46;100.00
6829;BME280;17930;48.592;8.868;2023-02-12T03:18:49;98658.31;;;3.45;100.00
6829;BME280;17930;48.592;8.868;2023-02-12T03:21:23;98666.88;;;3.81;100.00
6829;BME280;17930;48.592;8.868;2023-02-12T03:23:57;98670.84;;;3.98;100.00
6829;BME280;17930;48.592;8.868;2023-02-12T03:26:33;98670.75;;;3.91;100.00
6829;BME280;17930;48.592;8.868;2023-02-12T03:29:03;98663.06;;;3.77;100.00
6829;BME280;17930;48.592;8.868;2023-02-12T03:31:36;98670.50;;;3.86;100.00
6829;BME280;17930;48.592;8.868;2023-02-12T03:34:11;98676.06;;;4.04;100.00
6829;BME280;17930;48.592;8.868;2023-02-12T03:36:46;98678.44;;;3.85;100.00
6829;BME280;17930;48.592;8.868;2023-02-12T03:39:24;98676.72;;;3.92;100.00
6829;BME280;17930;48.592;8.868;2023-02-12T03:42:04;98677.16;;;3.95;100.00
6829;BME280;17930;48.592;8.868;2023-02-12T03:44:45;98684.84;;;3.89;100.00
6829;BME280;17930;48.592;8.868;2023-02-12T03:47:20;98681.09;;;3.77;100.00
6829;BME280;17930;48.592;8.868;2023-02-12T03:49:53;98677.84;;;3.68;100.00
6829;BME280;17930;48.592;8.868;2023-02-12T03:52:21;98678.81;;;3.82;100.00
6829;BME280;17930;48.592;8.868;2023-02-12T03:54:48;98676.97;;;3.97;100.00
6829;BME280;17930;48.592;8.868;2023-02-12T03:57:17;98683.84;;;3.90;100.00
6829;BME280;17930;48.592;8.868;2023-02-12T03:59:45;98681.94;;;3.77;100.00
6829;BME280;17930;48.592;8.868;2023-02-12T04:02:14;98681.84;;;3.71;100.00
6829;BME280;17930;48.592;8.868;2023-02-12T04:04:42;98677.03;;;3.68;100.00
6829;BME280;17930;48.592;8.868;2023-02-12T04:07:10;98680.72;;;3.59;100.00
6829;BME280;17930;48.592;8.868;2023-02-12T04:09:37;98678.94;;;3.59;100.00
6829;BME280;17930;48.592;8.868;2023-02-12T04:12:16;98687.00;;;3.71;100.00
6829;BME280;17930;48.592;8.868;2023-02-12T04:14:49;98678.50;;;3.56;100.00
6829;BME280;17930;48.592;8.868;2023-02-12T04:17:21;98679.66;;;3.54;100.00
6829;BME280;17930;48.592;8.868;2023-02-12T04:20:03;98682.41;;;3.52;100.00
6829;BME280;17930;48.592;8.868;2023-02-12T04:22:44;98682.78;;;3.49;100.00
6829;BME280;17930;48.592;8.868;2023-02-12T04:25:21;98692.72;;;3.52;100.00
6829;BME280;17930;48.592;8.868;2023-02-12T04:27:56;98695.66;;;3.63;100.00
6829;BME280;17930;48.592;8.868;2023-02-12T04:30:28;98690.88;;;3.96;100.00
6829;BME280;17930;48.592;8.868;2023-02-12T04:32:59;98689.78;;;4.05;100.00
6829;BME280;17930;48.592;8.868;2023-02-12T04:35:31;98692.09;;;4.00;100.00
6829;BME280;17930;48.592;8.868;2023-02-12T04:38:05;98689.41;;;4.07;100.00
6829;BME280;17930;48.592;8.868;2023-02-12T04:40:34;98694.69;;;4.20;100.00
6829;BME280;17930;48.592;8.868;2023-02-12T04:43:01;98692.59;;;4.09;100.00
6829;BME280;17930;48.592;8.868;2023-02-12T04:45:30;98697.75;;;4.09;100.00
6829;BME280;17930;48.592;8.868;2023-02-12T04:47:58;98693.09;;;4.19;100.00
6829;BME280;17930;48.592;8.868;2023-02-12T04:50:26;98690.97;;;4.44;100.00
6829;BME280;17930;48.592;8.868;2023-02-12T04:52:57;98697.78;;;4.30;100.00
6829;BME280;17930;48.592;8.868;2023-02-12T04:55:24;98701.84;;;4.18;100.00
6829;BME280;17930;48.592;8.868;2023-02-12T04:57:50;98704.66;;;4.23;100.00
6829;BME280;17930;48.592;8.868;2023-02-12T05:00:17;98697.81;;;4.16;100.00
6829;BME280;17930;48.592;8.868;2023-02-12T05:02:44;98698.75;;;4.08;100.00
6829;BME280;17930;48.592;8.868;2023-02-12T05:05:10;98693.03;;;4.13;100.00
6829;BME280;17930;48.592;8.868;2023-02-12T05:07:37;98695.84;;;4.18;100.00
6829;BME280;17930;48.592;8.868;2023-02-12T05:10:07;98694.16;;;4.04;100.00
6829;BME280;17930;48.592;8.868;2023-02-12T05:12:33;98691.25;;;3.93;100.00
6829;BME280;17930;48.592;8.868;2023-02-12T05:15:00;98700.03;;;3.84;100.00
6829;BME280;17930;48.592;8.868;2023-02-12T05:17:27;98700.34;;;3.74;100.00
6829;BME280;17930;48.592;8.868;2023-02-12T05:19:53;98700.88;;;3.70;100.00
6829;BME280;17930;48.592;8.868;2023-02-12T05:22:20;98701.59;;;3.64;100.00
6829;BME280;17930;48.592;8.868;2023-02-12T05:24:47;98696.88;;;3.82;100.00
6829;BME280;17930;48.592;8.868;2023-02-12T05:27:15;98700.78;;;3.78;100.00
6829;BME280;17930;48.592;8.868;2023-02-12T05:29:41;98699.97;;;3.63;100.00
6829;BME280;17930;48.592;8.868;2023-02-12T05:32:08;98696.19;;;3.59;100.00
6829;BME280;17930;48.592;8.868;2023-02-12T05:34:35;98701.00;;;3.48;100.00
6829;BME280;17930;48.592;8.868;2023-02-12T05:37:02;98704.19;;;3.35;100.00
6829;BME280;17930;48.592;8.868;2023-02-12T05:39:30;98696.53;;;3.27;100.00
6829;BME280;17930;48.592;8.868;2023-02-12T05:41:57;98696.66;;;3.19;100.00
6829;BME280;17930;48.592;8.868;2023-02-12T05:44:25;98699.22;;;3.19;100.00
6829;BME280;17930;48.592;8.868;2023-02-12T05:46:51;98702.69;;;3.26;100.00
6829;BME280;17930;48.592;8.868;2023-02-12T05:49:18;98703.50;;;3.12;100.00
6829;BME280;17930;48.592;8.868;2023-02-12T05:51:45;98695.22;;;3.03;100.00
6829;BME280;17930;48.592;8.868;2023-02-12T05:54:11;98692.00;;;3.01;100.00
6829;BME280;17930;48.592;8.868;2023-02-12T05:56:42;98695.56;;;3.00;100.00
6829;BME280;17930;48.592;8.868;2023-02-12T05:59:13;98697.44;;;3.05;100.00
6829;BME280;17930;48.592;8.868;2023-02-12T06:01:43;98698.69;;;3.09;100.00
6829;BME280;17930;48.592;8.868;2023-02-12T06:04:13;98695.94;;;3.11;100.00
6829;BME280;17930;48.592;8.868;2023-02-12T06:06:40;98692.53;;;3.10;100.00
6829;BME280;17930;48.592;8.868;2023-02-12T06:09:07;98687.84;;;3.14;100.00
6829;BME280;17930;48.592;8.868;2023-02-12T06:11:34;98694.44;;;3.16;100.00
6829;BME280;17930;48.592;8.868;2023-02-12T06:14:01;98694.31;;;3.24;100.00
6829;BME280;17930;48.592;8.868;2023-02-12T06:16:28;98688.03;;;3.27;100.00
6829;BME280;17930;48.592;8.868;2023-02-12T06:18:56;98696.00;;;3.32;100.00
6829;BME280;17930;48.592;8.868;2023-02-12T06:21:24;98693.78;;;3.43;100.00
6829;BME280;17930;48.592;8.868;2023-02-12T06:23:52;98704.44;;;3.40;100.00
6829;BME280;17930;48.592;8.868;2023-02-12T06:26:19;98697.72;;;3.39;100.00
6829;BME280;17930;48.592;8.868;2023-02-12T06:28:47;98691.75;;;3.39;100.00
6829;BME280;17930;48.592;8.868;2023-02-12T06:31:18;98702.22;;;3.37;100.00
6829;BME280;17930;48.592;8.868;2023-02-12T06:33:45;98699.66;;;3.37;100.00
6829;BME280;17930;48.592;8.868;2023-02-12T06:36:13;98696.41;;;3.78;100.00
6829;BME280;17930;48.592;8.868;2023-02-12T06:38:40;98702.84;;;3.68;100.00
6829;BME280;17930;48.592;8.868;2023-02-12T06:41:07;98701.59;;;3.64;100.00
6829;BME280;17930;48.592;8.868;2023-02-12T06:43:34;98698.75;;;3.73;100.00
6829;BME280;17930;48.592;8.868;2023-02-12T06:46:02;98706.59;;;3.51;100.00
6829;BME280;17930;48.592;8.868;2023-02-12T06:48:30;98708.19;;;3.52;100.00
6829;BME280;17930;48.592;8.868;2023-02-12T06:51:03;98701.59;;;3.64;100.00
6829;BME280;17930;48.592;8.868;2023-02-12T06:53:33;98701.63;;;3.50;100.00
6829;BME280;17930;48.592;8.868;2023-02-12T06:56:00;98711.03;;;3.57;100.00
6829;BME280;17930;48.592;8.868;2023-02-12T06:58:27;98714.09;;;3.46;100.00
6829;BME280;17930;48.592;8.868;2023-02-12T07:00:54;98715.28;;;3.50;100.00
6829;BME280;17930;48.592;8.868;2023-02-12T07:03:21;98717.59;;;3.74;100.00
6829;BME280;17930;48.592;8.868;2023-02-12T07:05:48;98717.63;;;3.59;100.00
6829;BME280;17930;48.592;8.868;2023-02-12T07:08:15;98715.94;;;3.52;100.00
6829;BME280;17930;48.592;8.868;2023-02-12T07:10:47;98718.88;;;3.49;100.00
6829;BME280;17930;48.592;8.868;2023-02-12T07:13:14;98720.88;;;3.82;100.00
6829;BME280;17930;48.592;8.868;2023-02-12T07:15:41;98714.56;;;3.85;100.00
6829;BME280;17930;48.592;8.868;2023-02-12T07:18:10;98720.31;;;3.87;100.00
6829;BME280;17930;48.592;8.868;2023-02-12T07:20:37;98716.97;;;3.86;100.00
6829;BME280;17930;48.592;8.868;2023-02-12T07:23:04;98718.94;;;3.84;100.00
6829;BME280;17930;48.592;8.868;2023-02-12T07:25:30;98719.00;;;3.91;100.00
6829;BME280;17930;48.592;8.868;2023-02-12T07:27:59;98719.63;;;3.93;100.00
6829;BME280;17930;48.592;8.868;2023-02-12T07:30:25;98720.97;;;3.89;100.00
6829;BME280;17930;48.592;8.868;2023-02-12T07:32:52;98718.91;;;4.19;100.00
6829;BME280;17930;48.592;8.868;2023-02-12T07:35:19;98718.28;;;4.59;100.00
6829;BME280;17930;48.592;8.868;2023-02-12T07:37:46;98727.09;;;4.64;100.00
6829;BME280;17930;48.592;8.868;2023-02-12T07:40:13;98726.31;;;4.43;100.00
6829;BME280;17930;48.592;8.868;2023-02-12T07:42:39;98723.50;;;4.38;100.00
6829;BME280;17930;48.592;8.868;2023-02-12T07:45:08;98720.28;;;4.57;100.00
6829;BME280;17930;48.592;8.868;2023-02-12T07:47:35;98722.19;;;4.49;100.00
6829;BME280;17930;48.592;8.868;2023-02-12T07:50:04;98717.28;;;4.54;100.00
6829;BME280;17930;48.592;8.868;2023-02-12T07:52:32;98714.88;;;4.52;100.00
6829;BME280;17930;48.592;8.868;2023-02-12T07:54:59;98713.53;;;4.35;100.00
6829;BME280;17930;48.592;8.868;2023-02-12T07:57:25;98717.69;;;4.15;100.00
6829;BME280;17930;48.592;8.868;2023-02-12T07:59:52;98715.06;;;3.95;100.00
6829;BME280;17930;48.592;8.868;2023-02-12T08:02:20;98719.06;;;3.97;100.00
6829;BME280;17930;48.592;8.868;2023-02-12T08:04:54;98717.19;;;4.06;100.00
6829;BME280;17930;48.592;8.868;2023-02-12T08:07:21;98709.94;;;4.36;100.00
6829;BME280;17930;48.592;8.868;2023-02-12T08:09:48;98716.22;;;4.69;100.00
6829;BME280;17930;48.592;8.868;2023-02-12T08:12:15;98712.63;;;4.70;100.00
6829;BME280;17930;48.592;8.868;2023-02-12T08:14:42;98715.50;;;4.81;100.00
6829;BME280;17930;48.592;8.868;2023-02-12T08:17:09;98713.31;;;5.06;100.00
6829;BME280;17930;48.592;8.868;2023-02-12T08:19:37;98712.56;;;5.45;100.00
6829;BME280;17930;48.592;8.868;2023-02-12T08:22:04;98706.91;;;5.69;100.00
6829;BME280;17930;48.592;8.868;2023-02-12T08:24:31;98701.91;;;5.95;100.00
6829;BME280;17930;48.592;8.868;2023-02-12T08:26:57;98707.63;;;5.84;100.00
6829;BME280;17930;48.592;8.868;2023-02-12T08:29:26;98701.47;;;5.85;100.00
6829;BME280;17930;48.592;8.868;2023-02-12T08:31:55;98697.91;;;5.99;100.00
6829;BME280;17930;48.592;8.868;2023-02-12T08:34:23;98698.06;;;5.78;100.00
6829;BME280;17930;48.592;8.868;2023-02-12T08:36:53;98698.84;;;5.78;100.00
6829;BME280;17930;48.592;8.868;2023-02-12T08:39:21;98701.59;;;6.36;100.00
6829;BME280;17930;48.592;8.868;2023-02-12T08:41:48;98702.81;;;6.47;100.00
6829;BME280;17930;48.592;8.868;2023-02-12T08:44:15;98699.19;;;6.28;100.00
6829;BME280;17930;48.592;8.868;2023-02-12T08:46:44;98702.00;;;6.40;100.00
6829;BME280;17930;48.592;8.868;2023-02-12T08:49:13;98701.63;;;6.49;100.00
6829;BME280;17930;48.592;8.868;2023-02-12T08:51:42;98699.22;;;6.48;100.00
6829;BME280;17930;48.592;8.868;2023-02-12T08:54:12;98703.41;;;6.55;100.00
6829;BME280;17930;48.592;8.868;2023-02-12T08:56:39;98703.41;;;6.68;100.00
6829;BME280;17930;48.592;8.868;2023-02-12T08:59:07;98705.00;;;6.95;100.00
6829;BME280;17930;48.592;8.868;2023-02-12T09:01:39;98702.22;;;7.15;100.00
6829;BME280;17930;48.592;8.868;2023-02-12T09:04:07;98696.34;;;7.46;100.00
6829;BME280;17930;48.592;8.868;2023-02-12T09:06:36;98695.53;;;7.58;100.00
6829;BME280;17930;48.592;8.868;2023-02-12T09:09:03;98693.13;;;7.63;100.00
6829;BME280;17930;48.592;8.868;2023-02-12T09:11:33;98696.09;;;7.66;100.00
6829;BME280;17930;48.592;8.868;2023-02-12T09:14:02;98700.66;;;7.71;100.00
6829;BME280;17930;48.592;8.868;2023-02-12T09:16:30;98709.06;;;7.73;100.00
6829;BME280;17930;48.592;8.868;2023-02-12T09:18:58;98707.13;;;7.49;100.00
6829;BME280;17930;48.592;8.868;2023-02-12T09:21:25;98706.00;;;7.19;100.00
6829;BME280;17930;48.592;8.868;2023-02-12T09:23:52;98709.63;;;6.99;100.00
6829;BME280;17930;48.592;8.868;2023-02-12T09:26:20;98712.78;;;6.69;100.00
6829;BME280;17930;48.592;8.868;2023-02-12T09:28:49;98713.19;;;6.53;100.00
6829;BME280;17930;48.592;8.868;2023-02-12T09:31:18;98712.63;;;6.64;100.00
6829;BME280;17930;48.592;8.868;2023-02-12T09:33:48;98715.59;;;6.74;100.00
6829;BME280;17930;48.592;8.868;2023-02-12T09:36:15;98723.97;;;6.89;100.00
6829;BME280;17930;48.592;8.868;2023-02-12T09:38:42;98721.78;;;6.99;100.00
6829;BME280;17930;48.592;8.868;2023-02-12T09:41:28;98725.75;;;6.82;100.00
6829;BME280;17930;48.592;8.868;2023-02-12T09:44:05;98711.97;;;7.20;100.00
6829;BME280;17930;48.592;8.868;2023-02-12T09:46:37;98721.94;;;7.42;100.00
6829;BME280;17930;48.592;8.868;2023-02-12T09:49:08;98721.16;;;7.35;100.00
6829;BME280;17930;48.592;8.868;2023-02-12T09:51:37;98726.13;;;7.43;100.00
6829;BME280;17930;48.592;8.868;2023-02-12T09:54:06;98719.91;;;7.51;100.00
6829;BME280;17930;48.592;8.868;2023-02-12T09:56:37;98719.31;;;7.55;100.00
6829;BME280;17930;48.592;8.868;2023-02-12T09:59:07;98713.81;;;7.89;100.00
6829;BME280;17930;48.592;8.868;2023-02-12T10:01:34;98715.81;;;7.87;100.00
6829;BME280;17930;48.592;8.868;2023-02-12T10:04:03;98724.50;;;8.12;100.00
6829;BME280;17930;48.592;8.868;2023-02-12T10:06:34;98720.06;;;8.25;100.00
6829;BME280;17930;48.592;8.868;2023-02-12T10:09:23;98719.84;;;8.57;100.00
6829;BME280;17930;48.592;8.868;2023-02-12T10:12:03;98720.56;;;8.70;100.00
6829;BME280;17930;48.592;8.868;2023-02-12T10:14:54;98715.91;;;8.48;100.00
6829;BME280;17930;48.592;8.868;2023-02-12T10:17:31;98721.00;;;8.68;100.00
6829;BME280;17930;48.592;8.868;2023-02-12T10:20:14;98717.84;;;8.90;100.00
6829;BME280;17930;48.592;8.868;2023-02-12T10:22:57;98718.41;;;8.92;100.00
6829;BME280;17930;48.592;8.868;2023-02-12T10:25:31;98714.94;;;9.22;100.00
6829;BME280;17930;48.592;8.868;2023-02-12T10:28:08;98709.13;;;9.44;100.00
6829;BME280;17930;48.592;8.868;2023-02-12T10:30:40;98707.66;;;9.66;100.00
6829;BME280;17930;48.592;8.868;2023-02-12T10:33:13;98714.56;;;9.61;100.00
6829;BME280;17930;48.592;8.868;2023-02-12T10:35:43;98710.72;;;9.45;100.00
6829;BME280;17930;48.592;8.868;2023-02-12T10:38:15;98699.00;;;9.54;100.00
6829;BME280;17930;48.592;8.868;2023-02-12T10:40:44;98701.16;;;9.57;100.00
6829;BME280;17930;48.592;8.868;2023-02-12T10:43:11;98703.31;;;9.60;100.00
6829;BME280;17930;48.592;8.868;2023-02-12T10:45:41;98695.97;;;9.75;100.00
6829;BME280;17930;48.592;8.868;2023-02-12T10:48:10;98693.59;;;10.21;100.00
6829;BME280;17930;48.592;8.868;2023-02-12T10:50:51;98688.41;;;10.03;100.00
6829;BME280;17930;48.592;8.868;2023-02-12T10:53:24;98690.78;;;10.04;100.00
6829;BME280;17930;48.592;8.868;2023-02-12T10:56:14;98683.44;;;10.30;100.00
6829;BME280;17930;48.592;8.868;2023-02-12T10:58:52;98682.16;;;10.22;100.00
6829;BME280;17930;48.592;8.868;2023-02-12T11:01:24;98684.44;;;10.29;100.00
6829;BME280;17930;48.592;8.868;2023-02-12T11:03:52;98683.56;;;10.35;100.00
6829;BME280;17930;48.592;8.868;2023-02-12T11:06:21;98678.22;;;10.30;100.00
6829;BME280;17930;48.592;8.868;2023-02-12T11:08:48;98680.53;;;10.38;100.00
6829;BME280;17930;48.592;8.868;2023-02-12T11:11:22;98689.56;;;10.65;100.00
6829;BME280;17930;48.592;8.868;2023-02-12T11:13:56;98677.72;;;10.51;100.00
6829;BME280;17930;48.592;8.868;2023-02-12T11:16:30;98677.75;;;10.33;100.00
6829;BME280;17930;48.592;8.868;2023-02-12T11:19:01;98677.19;;;10.31;100.00
6829;BME280;17930;48.592;8.868;2023-02-12T11:21:29;98673.41;;;10.45;100.00
6829;BME280;17930;48.592;8.868;2023-02-12T11:23:56;98665.94;;;10.60;100.00
6829;BME280;17930;48.592;8.868;2023-02-12T11:26:26;98669.22;;;10.56;100.00
6829;BME280;17930;48.592;8.868;2023-02-12T11:28:56;98667.06;;;10.64;100.00
6829;BME280;17930;48.592;8.868;2023-02-12T11:31:24;98663.94;;;10.85;100.00
6829;BME280;17930;48.592;8.868;2023-02-12T11:34:08;98670.47;;;10.65;100.00
6829;BME280;17930;48.592;8.868;2023-02-12T11:36:36;98661.41;;;10.67;100.00
6829;BME280;17930;48.592;8.868;2023-02-12T11:39:04;98660.25;;;10.63;100.00
6829;BME280;17930;48.592;8.868;2023-02-12T11:41:34;98667.16;;;10.58;100.00
6829;BME280;17930;48.592;8.868;2023-02-12T11:44:08;98657.56;;;10.81;100.00
6829;BME280;17930;48.592;8.868;2023-02-12T11:46:35;98658.34;;;10.29;100.00
6829;BME280;17930;48.592;8.868;2023-02-12T11:49:06;98664.91;;;10.21;100.00
6829;BME280;17930;48.592;8.868;2023-02-12T11:51:35;98657.91;;;10.32;100.00
6829;BME280;17930;48.592;8.868;2023-02-12T11:54:04;98662.25;;;10.38;100.00
6829;BME280;17930;48.592;8.868;2023-02-12T11:56:42;98658.34;;;10.29;100.00
6829;BME280;17930;48.592;8.868;2023-02-12T11:59:25;98661.13;;;10.46;100.00
6829;BME280;17930;48.592;8.868;2023-02-12T12:01:54;98656.44;;;11.00;100.00
6829;BME280;17930;48.592;8.868;2023-02-12T12:04:24;98659.50;;;11.31;100.00
6829;BME280;17930;48.592;8.868;2023-02-12T12:06:55;98646.63;;;12.30;100.00
6829;BME280;17930;48.592;8.868;2023-02-12T12:09:25;98638.59;;;13.56;100.00
6829;BME280;17930;48.592;8.868;2023-02-12T12:11:59;98634.66;;;14.23;100.00
6829;BME280;17930;48.592;8.868;2023-02-12T12:14:30;98633.97;;;15.36;100.00
6829;BME280;17930;48.592;8.868;2023-02-12T12:17:02;98632.25;;;14.79;100.00
6829;BME280;17930;48.592;8.868;2023-02-12T12:19:55;98630.84;;;14.66;100.00
6829;BME280;17930;48.592;8.868;2023-02-12T12:22:38;98624.75;;;15.94;100.00
6829;BME280;17930;48.592;8.868;2023-02-12T12:25:12;98626.91;;;14.69;100.00
6829;BME280;17930;48.592;8.868;2023-02-12T12:27:48;98635.41;;;13.76;100.00
6829;BME280;17930;48.592;8.868;2023-02-12T12:30:52;98626.19;;;15.60;100.00
6829;BME280;17930;48.592;8.868;2023-02-12T12:33:31;98622.19;;;15.07;100.00
6829;BME280;17930;48.592;8.868;2023-02-12T12:38:55;98625.06;;;12.89;100.00
6829;BME280;17930;48.592;8.868;2023-02-12T12:41:29;98640.22;;;12.54;100.00
6829;BME280;17930;48.592;8.868;2023-02-12T12:44:10;98627.53;;;13.54;100.00
6829;BME280;17930;48.592;8.868;2023-02-12T12:47:01;98614.00;;;14.62;100.00
6829;BME280;17930;48.592;8.868;2023-02-12T12:49:42;98616.13;;;15.42;100.00
6829;BME280;17930;48.592;8.868;2023-02-12T12:52:49;98606.50;;;15.68;100.00
6829;BME280;17930;48.592;8.868;2023-02-12T12:55:44;98599.84;;;16.56;100.00
6829;BME280;17930;48.592;8.868;2023-02-12T12:58:20;98601.19;;;16.68;100.00
6829;BME280;17930;48.592;8.868;2023-02-12T13:01:09;98598.97;;;17.20;100.00
6829;BME280;17930;48.592;8.868;2023-02-12T13:06:55;98604.25;;;16.16;100.00
6829;BME280;17930;48.592;8.868;2023-02-12T13:12:55;98606.53;;;14.81;100.00
6829;BME280;17930;48.592;8.868;2023-02-12T13:15:32;98610.38;;;12.88;100.00
6829;BME280;17930;48.592;8.868;2023-02-12T13:18:10;98608.66;;;13.74;100.00
6829;BME280;17930;48.592;8.868;2023-02-12T13:20:46;98604.44;;;13.51;100.00
6829;BME280;17930;48.592;8.868;2023-02-12T13:23:22;98603.84;;;14.13;100.00
6829;BME280;17930;48.592;8.868;2023-02-12T13:26:00;98604.34;;;14.36;100.00
6829;BME280;17930;48.592;8.868;2023-02-12T13:28:33;98596.34;;;14.89;100.00
6829;BME280;17930;48.592;8.868;2023-02-12T13:31:04;98599.88;;;14.73;100.00
6829;BME280;17930;48.592;8.868;2023-02-12T13:33:38;98598.16;;;13.31;100.00
6829;BME280;17930;48.592;8.868;2023-02-12T13:36:09;98606.34;;;12.48;100.00
6829;BME280;17930;48.592;8.868;2023-02-12T13:38:41;98601.16;;;13.02;100.00